sensor_id;sensor_type;location;lat;lon;timestamp;temperature;humidity
7317;DHT22;3699;51.462;6.696;2023-05-29T00:01:57;15.30;99.90
7317;DHT22;3699;51.462;6.696;2023-05-29T00:04:24;15.30;99.90
7317;DHT22;3699;51.462;6.696;2023-05-29T00:06:50;15.30;99.90
7317;DHT22;3699;51.462;6.696;2023-05-29T00:09:17;15.20;99.90
7317;DHT22;3699;51.462;6.696;2023-05-29T00:11:44;15.20;99.90
7317;DHT22;3699;51.462;6.696;2023-05-29T00:14:16;15.20;99.90
7317;DHT22;3699;51.462;6.696;2023-05-29T00:16:46;15.20;99.90
7317;DHT22;3699;51.462;6.696;2023-05-29T00:19:14;15.10;99.90
7317;DHT22;3699;51.462;6.696;2023-05-29T00:21:42;15.10;99.90
7317;DHT22;3699;51.462;6.696;2023-05-29T00:24:09;15.00;99.90
7317;DHT22;3699;51.462;6.696;2023-05-29T00:26:35;15.00;99.90
7317;DHT22;3699;51.462;6.696;2023-05-29T00:29:02;14.90;99.90
7317;DHT22;3699;51.462;6.696;2023-05-29T00:31:29;14.90;99.90
7317;DHT22;3699;51.462;6.696;2023-05-29T00:33:57;14.80;99.90
7317;DHT22;3699;51.462;6.696;2023-05-29T00:36:25;14.70;99.90
7317;DHT22;3699;51.462;6.696;2023-05-29T00:38:54;14.70;99.90
7317;DHT22;3699;51.462;6.696;2023-05-29T00:41:20;14.70;99.90
7317;DHT22;3699;51.462;6.696;2023-05-29T00:43:47;14.70;99.90
7317;DHT22;3699;51.462;6.696;2023-05-29T00:46:15;14.60;99.90
7317;DHT22;3699;51.462;6.696;2023-05-29T00:48:43;14.60;99.90
7317;DHT22;3699;51.462;6.696;2023-05-29T00:51:12;14.50;99.90
7317;DHT22;3699;51.462;6.696;2023-05-29T00:53:40;14.40;99.90
7317;DHT22;3699;51.462;6.696;2023-05-29T00:56:07;14.30;99.90
7317;DHT22;3699;51.462;6.696;2023-05-29T00:58:34;14.30;99.90
7317;DHT22;3699;51.462;6.696;2023-05-29T01:01:02;14.30;99.90
7317;DHT22;3699;51.462;6.696;2023-05-29T01:03:28;14.20;99.90
7317;DHT22;3699;51.462;6.696;2023-05-29T01:05:57;14.10;99.90
7317;DHT22;3699;51.462;6.696;2023-05-29T01:08:25;14.10;99.90
7317;DHT22;3699;51.462;6.696;2023-05-29T01:10:56;14.10;99.90
7317;DHT22;3699;51.462;6.696;2023-05-29T01:13:29;14.00;99.90
7317;DHT22;3699;51.462;6.696;2023-05-29T01:16:01;14.00;99.90
7317;DHT22;3699;51.462;6.696;2023-05-29T01:18:38;14.00;99.90
7317;DHT22;3699;51.462;6.696;2023-05-29T01:21:11;14.00;99.90
7317;DHT22;3699;51.462;6.696;2023-05-29T01:23:52;13.90;99.90
7317;DHT22;3699;51.462;6.696;2023-05-29T01:26:42;13.80;99.90
7317;DHT22;3699;51.462;6.696;2023-05-29T01:29:14;13.70;99.90
7317;DHT22;3699;51.462;6.696;2023-05-29T01:31:42;13.60;99.90
7317;DHT22;3699;51.462;6.696;2023-05-29T01:34:10;13.60;99.90
7317;DHT22;3699;51.462;6.696;2023-05-29T01:36:37;13.50;99.90
7317;DHT22;3699;51.462;6.696;2023-05-29T01:39:04;13.40;99.90
7317;DHT22;3699;51.462;6.696;2023-05-29T01:41:32;13.40;99.90
7317;DHT22;3699;51.462;6.696;2023-05-29T01:44:05;13.30;99.90
7317;DHT22;3699;51.462;6.696;2023-05-29T01:46:34;13.30;99.90
7317;DHT22;3699;51.462;6.696;2023-05-29T01:49:02;13.20;99.90
7317;DHT22;3699;51.462;6.696;2023-05-29T01:51:28;13.10;99.90
7317;DHT22;3699;51.462;6.696;2023-05-29T01:53:57;13.10;99.90
7317;DHT22;3699;51.462;6.696;2023-05-29T01:56:25;15.10;99.90
7317;DHT22;3699;51.462;6.696;2023-05-29T01:58:53;13.00;99.90
7317;DHT22;3699;51.462;6.696;2023-05-29T02:01:22;12.90;99.90
7317;DHT22;3699;51.462;6.696;2023-05-29T02:03:49;12.80;99.90
7317;DHT22;3699;51.462;6.696;2023-05-29T02:06:16;12.90;99.90
7317;DHT22;3699;51.462;6.696;2023-05-29T02:08:43;12.70;99.90
7317;DHT22;3699;51.462;6.696;2023-05-29T02:11:10;12.70;99.90
7317;DHT22;3699;51.462;6.696;2023-05-29T02:13:37;12.60;99.90
7317;DHT22;3699;51.462;6.696;2023-05-29T02:16:04;12.70;99.90
7317;DHT22;3699;51.462;6.696;2023-05-29T02:18:32;12.60;99.90
7317;DHT22;3699;51.462;6.696;2023-05-29T02:21:00;12.70;99.90
7317;DHT22;3699;51.462;6.696;2023-05-29T02:23:27;12.60;99.90
7317;DHT22;3699;51.462;6.696;2023-05-29T02:25:54;12.50;99.90
7317;DHT22;3699;51.462;6.696;2023-05-29T02:28:21;12.50;99.90
7317;DHT22;3699;51.462;6.696;2023-05-29T02:30:47;12.50;99.90
7317;DHT22;3699;51.462;6.696;2023-05-29T02:33:14;12.40;99.90
7317;DHT22;3699;51.462;6.696;2023-05-29T02:35:42;12.40;99.90
7317;DHT22;3699;51.462;6.696;2023-05-29T02:38:09;12.40;99.90
7317;DHT22;3699;51.462;6.696;2023-05-29T02:40:36;12.30;99.90
7317;DHT22;3699;51.462;6.696;2023-05-29T02:43:02;12.40;99.90
7317;DHT22;3699;51.462;6.696;2023-05-29T02:45:29;12.30;99.90
7317;DHT22;3699;51.462;6.696;2023-05-29T02:47:56;12.30;99.90
7317;DHT22;3699;51.462;6.696;2023-05-29T02:50:22;12.30;99.90
7317;DHT22;3699;51.462;6.696;2023-05-29T02:52:50;12.30;99.90
7317;DHT22;3699;51.462;6.696;2023-05-29T02:55:17;12.20;99.90
7317;DHT22;3699;51.462;6.696;2023-05-29T02:57:44;12.20;99.90
7317;DHT22;3699;51.462;6.696;2023-05-29T03:00:12;12.20;99.90
7317;DHT22;3699;51.462;6.696;2023-05-29T03:05:08;12.10;99.90
7317;DHT22;3699;51.462;6.696;2023-05-29T03:07:35;12.10;99.90
7317;DHT22;3699;51.462;6.696;2023-05-29T03:10:10;12.00;99.90
7317;DHT22;3699;51.462;6.696;2023-05-29T03:12:44;12.00;99.90
7317;DHT22;3699;51.462;6.696;2023-05-29T03:15:11;11.90;99.90
7317;DHT22;3699;51.462;6.696;2023-05-29T03:20:06;12.10;99.90
7317;DHT22;3699;51.462;6.696;2023-05-29T03:22:34;12.00;99.90
7317;DHT22;3699;51.462;6.696;2023-05-29T03:25:05;11.80;99.90
7317;DHT22;3699;51.462;6.696;2023-05-29T03:27:32;11.80;99.90
7317;DHT22;3699;51.462;6.696;2023-05-29T03:32:28;11.80;99.90
7317;DHT22;3699;51.462;6.696;2023-05-29T03:34:55;11.80;99.90
7317;DHT22;3699;51.462;6.696;2023-05-29T03:37:23;11.80;99.90
7317;DHT22;3699;51.462;6.696;2023-05-29T03:39:50;11.70;99.90
7317;DHT22;3699;51.462;6.696;2023-05-29T03:42:18;11.70;99.90
7317;DHT22;3699;51.462;6.696;2023-05-29T03:44:44;11.70;99.90
7317;DHT22;3699;51.462;6.696;2023-05-29T03:47:11;11.70;99.90
7317;DHT22;3699;51.462;6.696;2023-05-29T03:49:38;11.70;99.90
7317;DHT22;3699;51.462;6.696;2023-05-29T03:52:05;11.70;99.90
7317;DHT22;3699;51.462;6.696;2023-05-29T03:54:32;11.80;99.90
7317;DHT22;3699;51.462;6.696;2023-05-29T03:59:28;11.80;99.90
7317;DHT22;3699;51.462;6.696;2023-05-29T04:02:09;11.70;99.90
7317;DHT22;3699;51.462;6.696;2023-05-29T04:04:38;11.70;99.90
7317;DHT22;3699;51.462;6.696;2023-05-29T04:07:12;11.80;99.90
7317;DHT22;3699;51.462;6.696;2023-05-29T04:09:39;11.70;99.90
7317;DHT22;3699;51.462;6.696;2023-05-29T04:12:07;11.80;99.90
7317;DHT22;3699;51.462;6.696;2023-05-29T04:14:36;11.80;99.90
7317;DHT22;3699;51.462;6.696;2023-05-29T04:17:02;11.90;99.90
7317;DHT22;3699;51.462;6.696;2023-05-29T04:19:29;12.10;99.90
7317;DHT22;3699;51.462;6.696;2023-05-29T04:21:56;12.40;99.90
7317;DHT22;3699;51.462;6.696;2023-05-29T04:24:23;12.50;99.90
7317;DHT22;3699;51.462;6.696;2023-05-29T04:26:49;12.60;99.90
7317;DHT22;3699;51.462;6.696;2023-05-29T04:29:16;12.90;99.90
7317;DHT22;3699;51.462;6.696;2023-05-29T04:31:45;13.10;99.90
7317;DHT22;3699;51.462;6.696;2023-05-29T04:34:12;13.20;99.90
7317;DHT22;3699;51.462;6.696;2023-05-29T04:36:42;13.30;99.90
7317;DHT22;3699;51.462;6.696;2023-05-29T04:39:11;13.60;99.90
7317;DHT22;3699;51.462;6.696;2023-05-29T04:41:38;13.80;99.90
7317;DHT22;3699;51.462;6.696;2023-05-29T04:44:06;13.90;99.90
7317;DHT22;3699;51.462;6.696;2023-05-29T04:46:33;14.10;99.90
7317;DHT22;3699;51.462;6.696;2023-05-29T04:49:01;14.20;99.90
7317;DHT22;3699;51.462;6.696;2023-05-29T04:51:30;14.30;99.90
7317;DHT22;3699;51.462;6.696;2023-05-29T04:53:56;14.50;99.90
7317;DHT22;3699;51.462;6.696;2023-05-29T04:56:23;14.70;99.90
7317;DHT22;3699;51.462;6.696;2023-05-29T04:58:50;14.80;99.90
7317;DHT22;3699;51.462;6.696;2023-05-29T05:01:17;14.90;99.90
7317;DHT22;3699;51.462;6.696;2023-05-29T05:03:44;14.80;99.90
7317;DHT22;3699;51.462;6.696;2023-05-29T05:06:12;15.00;99.90
7317;DHT22;3699;51.462;6.696;2023-05-29T05:08:42;15.00;99.90
7317;DHT22;3699;51.462;6.696;2023-05-29T05:11:09;15.10;99.90
7317;DHT22;3699;51.462;6.696;2023-05-29T05:13:35;15.10;99.90
7317;DHT22;3699;51.462;6.696;2023-05-29T05:16:02;15.30;99.90
7317;DHT22;3699;51.462;6.696;2023-05-29T05:18:29;15.50;99.90
7317;DHT22;3699;51.462;6.696;2023-05-29T05:20:56;15.80;99.90
7317;DHT22;3699;51.462;6.696;2023-05-29T05:23:24;16.10;99.90
7317;DHT22;3699;51.462;6.696;2023-05-29T05:25:50;16.20;99.90
7317;DHT22;3699;51.462;6.696;2023-05-29T05:28:17;16.20;99.90
7317;DHT22;3699;51.462;6.696;2023-05-29T05:30:44;16.30;99.90
7317;DHT22;3699;51.462;6.696;2023-05-29T05:33:10;16.30;99.90
7317;DHT22;3699;51.462;6.696;2023-05-29T05:35:37;16.30;99.90
7317;DHT22;3699;51.462;6.696;2023-05-29T05:38:04;16.50;99.90
7317;DHT22;3699;51.462;6.696;2023-05-29T05:40:32;16.30;99.90
7317;DHT22;3699;51.462;6.696;2023-05-29T05:42:59;16.30;99.90
7317;DHT22;3699;51.462;6.696;2023-05-29T05:45:26;16.50;99.90
7317;DHT22;3699;51.462;6.696;2023-05-29T05:47:52;16.70;99.90
7317;DHT22;3699;51.462;6.696;2023-05-29T05:50:19;17.10;99.90
7317;DHT22;3699;51.462;6.696;2023-05-29T05:52:46;17.50;99.00
7317;DHT22;3699;51.462;6.696;2023-05-29T05:55:13;17.80;96.80
7317;DHT22;3699;51.462;6.696;2023-05-29T05:57:41;18.10;91.10
7317;DHT22;3699;51.462;6.696;2023-05-29T06:00:09;18.10;84.70
7317;DHT22;3699;51.462;6.696;2023-05-29T06:02:36;18.00;83.30
7317;DHT22;3699;51.462;6.696;2023-05-29T06:05:05;18.00;78.20
7317;DHT22;3699;51.462;6.696;2023-05-29T06:07:32;18.00;81.20
7317;DHT22;3699;51.462;6.696;2023-05-29T06:09:59;18.30;80.90
7317;DHT22;3699;51.462;6.696;2023-05-29T06:12:26;18.40;75.60
7317;DHT22;3699;51.462;6.696;2023-05-29T06:14:54;18.70;75.00
7317;DHT22;3699;51.462;6.696;2023-05-29T06:17:21;18.80;73.50
7317;DHT22;3699;51.462;6.696;2023-05-29T06:19:47;19.10;67.70
7317;DHT22;3699;51.462;6.696;2023-05-29T06:22:14;19.00;65.50
7317;DHT22;3699;51.462;6.696;2023-05-29T06:24:41;18.90;64.40
7317;DHT22;3699;51.462;6.696;2023-05-29T06:27:08;18.90;64.40
7317;DHT22;3699;51.462;6.696;2023-05-29T06:29:35;19.00;62.00
7317;DHT22;3699;51.462;6.696;2023-05-29T06:32:03;19.00;61.70
7317;DHT22;3699;51.462;6.696;2023-05-29T06:34:30;19.10;59.70
7317;DHT22;3699;51.462;6.696;2023-05-29T06:36:57;19.00;59.90
7317;DHT22;3699;51.462;6.696;2023-05-29T06:39:24;19.10;59.70
7317;DHT22;3699;51.462;6.696;2023-05-29T06:41:50;19.20;59.70
7317;DHT22;3699;51.462;6.696;2023-05-29T06:44:17;19.20;59.00
7317;DHT22;3699;51.462;6.696;2023-05-29T06:46:44;19.40;62.20
7317;DHT22;3699;51.462;6.696;2023-05-29T06:49:12;19.80;57.20
7317;DHT22;3699;51.462;6.696;2023-05-29T06:51:39;20.10;56.30
7317;DHT22;3699;51.462;6.696;2023-05-29T06:54:05;20.10;53.70
7317;DHT22;3699;51.462;6.696;2023-05-29T06:56:32;20.20;53.20
7317;DHT22;3699;51.462;6.696;2023-05-29T06:58:59;20.30;52.80
7317;DHT22;3699;51.462;6.696;2023-05-29T07:01:26;20.50;52.70
7317;DHT22;3699;51.462;6.696;2023-05-29T07:03:53;20.50;50.50
7317;DHT22;3699;51.462;6.696;2023-05-29T07:06:21;20.40;50.10
7317;DHT22;3699;51.462;6.696;2023-05-29T07:08:49;20.10;50.20
7317;DHT22;3699;51.462;6.696;2023-05-29T07:11:16;20.30;51.10
7317;DHT22;3699;51.462;6.696;2023-05-29T07:13:42;20.30;50.20
7317;DHT22;3699;51.462;6.696;2023-05-29T07:16:09;20.40;49.60
7317;DHT22;3699;51.462;6.696;2023-05-29T07:18:36;20.20;49.50
7317;DHT22;3699;51.462;6.696;2023-05-29T07:21:02;20.10;49.30
7317;DHT22;3699;51.462;6.696;2023-05-29T07:23:30;19.80;50.10
7317;DHT22;3699;51.462;6.696;2023-05-29T07:25:57;19.70;52.80
7317;DHT22;3699;51.462;6.696;2023-05-29T07:28:24;19.60;52.40
7317;DHT22;3699;51.462;6.696;2023-05-29T07:30:50;19.60;52.60
7317;DHT22;3699;51.462;6.696;2023-05-29T07:33:17;19.70;54.20
7317;DHT22;3699;51.462;6.696;2023-05-29T07:35:44;19.60;51.50
7317;DHT22;3699;51.462;6.696;2023-05-29T07:38:11;19.50;53.00
7317;DHT22;3699;51.462;6.696;2023-05-29T07:40:39;19.50;53.30
7317;DHT22;3699;51.462;6.696;2023-05-29T07:43:05;19.30;52.20
7317;DHT22;3699;51.462;6.696;2023-05-29T07:45:32;19.00;53.60
7317;DHT22;3699;51.462;6.696;2023-05-29T07:47:59;18.80;55.30
7317;DHT22;3699;51.462;6.696;2023-05-29T07:50:26;18.90;58.20
7317;DHT22;3699;51.462;6.696;2023-05-29T07:52:52;19.10;60.50
7317;DHT22;3699;51.462;6.696;2023-05-29T07:55:21;19.20;56.20
7317;DHT22;3699;51.462;6.696;2023-05-29T07:57:49;19.40;57.70
7317;DHT22;3699;51.462;6.696;2023-05-29T08:00:16;19.40;54.80
7317;DHT22;3699;51.462;6.696;2023-05-29T08:02:43;19.50;56.70
7317;DHT22;3699;51.462;6.696;2023-05-29T08:05:10;19.70;55.60
7317;DHT22;3699;51.462;6.696;2023-05-29T08:07:38;19.50;56.90
7317;DHT22;3699;51.462;6.696;2023-05-29T08:10:05;19.70;53.30
7317;DHT22;3699;51.462;6.696;2023-05-29T08:12:33;19.70;53.50
7317;DHT22;3699;51.462;6.696;2023-05-29T08:15:02;19.40;52.90
7317;DHT22;3699;51.462;6.696;2023-05-29T08:17:29;19.40;54.10
7317;DHT22;3699;51.462;6.696;2023-05-29T08:19:56;19.40;54.00
7317;DHT22;3699;51.462;6.696;2023-05-29T08:22:28;19.50;53.40
7317;DHT22;3699;51.462;6.696;2023-05-29T08:24:55;19.30;53.80
7317;DHT22;3699;51.462;6.696;2023-05-29T08:27:21;19.40;55.90
7317;DHT22;3699;51.462;6.696;2023-05-29T08:29:48;19.70;56.70
7317;DHT22;3699;51.462;6.696;2023-05-29T08:32:16;19.70;56.70
7317;DHT22;3699;51.462;6.696;2023-05-29T08:34:43;20.00;55.60
7317;DHT22;3699;51.462;6.696;2023-05-29T08:37:12;20.30;54.20
7317;DHT22;3699;51.462;6.696;2023-05-29T08:39:39;19.90;51.40
7317;DHT22;3699;51.462;6.696;2023-05-29T08:42:12;20.70;51.20
7317;DHT22;3699;51.462;6.696;2023-05-29T08:44:40;20.60;49.90
7317;DHT22;3699;51.462;6.696;2023-05-29T08:47:07;20.60;49.50
7317;DHT22;3699;51.462;6.696;2023-05-29T08:49:41;20.70;50.00
7317;DHT22;3699;51.462;6.696;2023-05-29T08:52:12;20.80;49.40
7317;DHT22;3699;51.462;6.696;2023-05-29T08:54:40;20.80;48.60
7317;DHT22;3699;51.462;6.696;2023-05-29T08:57:07;20.80;48.00
7317;DHT22;3699;51.462;6.696;2023-05-29T08:59:39;20.70;48.40
7317;DHT22;3699;51.462;6.696;2023-05-29T09:02:09;20.70;50.00
7317;DHT22;3699;51.462;6.696;2023-05-29T09:04:37;21.00;47.10
7317;DHT22;3699;51.462;6.696;2023-05-29T09:07:04;21.10;47.70
7317;DHT22;3699;51.462;6.696;2023-05-29T09:09:34;21.00;46.10
7317;DHT22;3699;51.462;6.696;2023-05-29T09:12:01;21.00;46.80
7317;DHT22;3699;51.462;6.696;2023-05-29T09:14:33;20.70;45.30
7317;DHT22;3699;51.462;6.696;2023-05-29T09:17:01;20.80;45.90
7317;DHT22;3699;51.462;6.696;2023-05-29T09:19:28;20.70;45.90
7317;DHT22;3699;51.462;6.696;2023-05-29T09:22:02;20.70;47.20
7317;DHT22;3699;51.462;6.696;2023-05-29T09:24:29;20.60;47.40
7317;DHT22;3699;51.462;6.696;2023-05-29T09:26:56;20.70;46.80
7317;DHT22;3699;51.462;6.696;2023-05-29T09:29:25;20.70;47.50
7317;DHT22;3699;51.462;6.696;2023-05-29T09:31:52;20.40;46.90
7317;DHT22;3699;51.462;6.696;2023-05-29T09:34:18;20.30;48.80
7317;DHT22;3699;51.462;6.696;2023-05-29T09:36:45;20.40;47.80
7317;DHT22;3699;51.462;6.696;2023-05-29T09:39:13;20.50;47.60
7317;DHT22;3699;51.462;6.696;2023-05-29T09:41:42;20.50;47.60
7317;DHT22;3699;51.462;6.696;2023-05-29T09:44:12;20.60;47.40
7317;DHT22;3699;51.462;6.696;2023-05-29T09:46:39;20.50;47.50
7317;DHT22;3699;51.462;6.696;2023-05-29T09:49:10;20.50;47.10
7317;DHT22;3699;51.462;6.696;2023-05-29T09:51:37;20.60;47.60
7317;DHT22;3699;51.462;6.696;2023-05-29T09:54:15;20.80;47.60
7317;DHT22;3699;51.462;6.696;2023-05-29T09:56:43;21.00;47.90
7317;DHT22;3699;51.462;6.696;2023-05-29T09:59:12;21.20;46.00
7317;DHT22;3699;51.462;6.696;2023-05-29T10:01:40;21.40;47.60
7317;DHT22;3699;51.462;6.696;2023-05-29T10:04:09;25.60;46.60
7317;DHT22;3699;51.462;6.696;2023-05-29T10:06:38;22.10;44.20
7317;DHT22;3699;51.462;6.696;2023-05-29T10:09:09;22.20;43.10
7317;DHT22;3699;51.462;6.696;2023-05-29T10:11:42;22.30;41.40
7317;DHT22;3699;51.462;6.696;2023-05-29T10:14:18;21.00;41.40
7317;DHT22;3699;51.462;6.696;2023-05-29T10:16:47;22.60;42.10
7317;DHT22;3699;51.462;6.696;2023-05-29T10:19:19;22.60;43.00
7317;DHT22;3699;51.462;6.696;2023-05-29T10:21:49;22.90;44.20
7317;DHT22;3699;51.462;6.696;2023-05-29T10:24:17;23.00;41.10
7317;DHT22;3699;51.462;6.696;2023-05-29T10:26:48;22.80;39.20
7317;DHT22;3699;51.462;6.696;2023-05-29T10:29:19;22.70;40.30
7317;DHT22;3699;51.462;6.696;2023-05-29T10:32:01;22.90;40.10
7317;DHT22;3699;51.462;6.696;2023-05-29T10:34:37;22.90;39.00
7317;DHT22;3699;51.462;6.696;2023-05-29T10:37:15;22.80;39.50
7317;DHT22;3699;51.462;6.696;2023-05-29T10:39:44;22.80;38.50
7317;DHT22;3699;51.462;6.696;2023-05-29T10:42:42;22.80;39.40
7317;DHT22;3699;51.462;6.696;2023-05-29T10:45:10;22.90;41.70
7317;DHT22;3699;51.462;6.696;2023-05-29T10:47:37;23.00;38.70
7317;DHT22;3699;51.462;6.696;2023-05-29T10:50:05;23.00;38.80
7317;DHT22;3699;51.462;6.696;2023-05-29T10:52:32;23.00;38.60
7317;DHT22;3699;51.462;6.696;2023-05-29T10:54:59;23.00;37.00
7317;DHT22;3699;51.462;6.696;2023-05-29T10:57:29;22.70;39.00
7317;DHT22;3699;51.462;6.696;2023-05-29T11:00:07;22.70;38.70
7317;DHT22;3699;51.462;6.696;2023-05-29T11:02:39;22.70;38.10
7317;DHT22;3699;51.462;6.696;2023-05-29T11:05:22;22.50;37.90
7317;DHT22;3699;51.462;6.696;2023-05-29T11:07:55;22.50;39.50
7317;DHT22;3699;51.462;6.696;2023-05-29T11:10:56;22.50;39.30
7317;DHT22;3699;51.462;6.696;2023-05-29T11:13:25;22.50;38.80
7317;DHT22;3699;51.462;6.696;2023-05-29T11:16:13;22.40;38.90
7317;DHT22;3699;51.462;6.696;2023-05-29T11:18:42;22.20;39.00
7317;DHT22;3699;51.462;6.696;2023-05-29T11:21:23;22.30;40.70
7317;DHT22;3699;51.462;6.696;2023-05-29T11:23:53;22.30;39.50
7317;DHT22;3699;51.462;6.696;2023-05-29T11:26:22;22.20;40.20
7317;DHT22;3699;51.462;6.696;2023-05-29T11:28:49;22.20;40.50
7317;DHT22;3699;51.462;6.696;2023-05-29T11:31:18;22.40;41.50
7317;DHT22;3699;51.462;6.696;2023-05-29T11:33:47;22.60;39.60
7317;DHT22;3699;51.462;6.696;2023-05-29T11:36:15;22.70;39.60
7317;DHT22;3699;51.462;6.696;2023-05-29T11:38:42;22.60;40.40
7317;DHT22;3699;51.462;6.696;2023-05-29T11:41:09;22.70;38.80
7317;DHT22;3699;51.462;6.696;2023-05-29T11:43:36;22.80;40.50
7317;DHT22;3699;51.462;6.696;2023-05-29T11:46:16;23.00;38.90
7317;DHT22;3699;51.462;6.696;2023-05-29T11:48:47;23.00;38.30
7317;DHT22;3699;51.462;6.696;2023-05-29T11:51:14;23.10;37.00
7317;DHT22;3699;51.462;6.696;2023-05-29T11:53:41;23.10;38.40
7317;DHT22;3699;51.462;6.696;2023-05-29T11:56:09;22.90;36.80
7317;DHT22;3699;51.462;6.696;2023-05-29T11:58:36;22.60;37.00
7317;DHT22;3699;51.462;6.696;2023-05-29T12:01:03;22.70;37.60
7317;DHT22;3699;51.462;6.696;2023-05-29T12:03:37;22.70;37.70
7317;DHT22;3699;51.462;6.696;2023-05-29T12:06:04;22.80;38.20
7317;DHT22;3699;51.462;6.696;2023-05-29T12:08:32;22.80;37.30
7317;DHT22;3699;51.462;6.696;2023-05-29T12:10:58;22.80;36.10
7317;DHT22;3699;51.462;6.696;2023-05-29T12:13:26;22.80;37.50
7317;DHT22;3699;51.462;6.696;2023-05-29T12:15:56;22.80;37.30
7317;DHT22;3699;51.462;6.696;2023-05-29T12:18:24;22.90;40.00
7317;DHT22;3699;51.462;6.696;2023-05-29T12:20:56;23.00;37.90
7317;DHT22;3699;51.462;6.696;2023-05-29T12:23:23;23.00;37.30
7317;DHT22;3699;51.462;6.696;2023-05-29T12:25:51;23.20;38.20
7317;DHT22;3699;51.462;6.696;2023-05-29T12:28:18;23.30;36.90
7317;DHT22;3699;51.462;6.696;2023-05-29T12:30:47;23.40;36.40
7317;DHT22;3699;51.462;6.696;2023-05-29T12:33:25;23.40;35.50
7317;DHT22;3699;51.462;6.696;2023-05-29T12:36:00;23.20;35.20
7317;DHT22;3699;51.462;6.696;2023-05-29T12:38:27;23.10;34.20
7317;DHT22;3699;51.462;6.696;2023-05-29T12:40:54;22.80;34.30
7317;DHT22;3699;51.462;6.696;2023-05-29T12:43:22;22.80;34.80
7317;DHT22;3699;51.462;6.696;2023-05-29T12:45:54;22.70;34.60
7317;DHT22;3699;51.462;6.696;2023-05-29T12:48:26;22.70;35.90
7317;DHT22;3699;51.462;6.696;2023-05-29T12:50:54;22.70;35.20
7317;DHT22;3699;51.462;6.696;2023-05-29T12:53:28;22.80;35.50
7317;DHT22;3699;51.462;6.696;2023-05-29T12:55:55;22.80;36.30
7317;DHT22;3699;51.462;6.696;2023-05-29T12:58:22;22.80;35.30
7317;DHT22;3699;51.462;6.696;2023-05-29T13:00:53;22.80;35.30
7317;DHT22;3699;51.462;6.696;2023-05-29T13:03:21;22.90;35.30
7317;DHT22;3699;51.462;6.696;2023-05-29T13:05:48;23.00;35.90
7317;DHT22;3699;51.462;6.696;2023-05-29T13:08:17;23.10;33.40
7317;DHT22;3699;51.462;6.696;2023-05-29T13:10:44;23.20;34.10
7317;DHT22;3699;51.462;6.696;2023-05-29T13:13:10;23.00;33.60
7317;DHT22;3699;51.462;6.696;2023-05-29T13:15:38;22.90;34.00
7317;DHT22;3699;51.462;6.696;2023-05-29T13:18:05;22.70;33.30
7317;DHT22;3699;51.462;6.696;2023-05-29T13:20:32;22.70;33.80
7317;DHT22;3699;51.462;6.696;2023-05-29T13:22:59;22.60;34.50
7317;DHT22;3699;51.462;6.696;2023-05-29T13:25:27;22.60;33.60
7317;DHT22;3699;51.462;6.696;2023-05-29T13:27:54;22.60;32.40
7317;DHT22;3699;51.462;6.696;2023-05-29T13:30:21;22.70;33.00
7317;DHT22;3699;51.462;6.696;2023-05-29T13:32:49;22.60;33.90
7317;DHT22;3699;51.462;6.696;2023-05-29T13:35:16;22.60;33.40
7317;DHT22;3699;51.462;6.696;2023-05-29T13:37:43;22.50;33.60
7317;DHT22;3699;51.462;6.696;2023-05-29T13:40:11;22.50;34.60
7317;DHT22;3699;51.462;6.696;2023-05-29T13:42:40;22.60;33.40
7317;DHT22;3699;51.462;6.696;2023-05-29T13:45:07;22.60;35.40
7317;DHT22;3699;51.462;6.696;2023-05-29T13:47:34;22.80;34.30
7317;DHT22;3699;51.462;6.696;2023-05-29T13:50:01;22.80;34.60
7317;DHT22;3699;51.462;6.696;2023-05-29T13:52:28;22.80;33.90
7317;DHT22;3699;51.462;6.696;2023-05-29T13:54:55;22.90;34.30
7317;DHT22;3699;51.462;6.696;2023-05-29T13:57:23;22.90;32.90
7317;DHT22;3699;51.462;6.696;2023-05-29T13:59:51;22.80;32.30
7317;DHT22;3699;51.462;6.696;2023-05-29T14:02:18;22.80;32.60
7317;DHT22;3699;51.462;6.696;2023-05-29T14:04:45;22.90;32.90
7317;DHT22;3699;51.462;6.696;2023-05-29T14:07:11;22.90;32.60
7317;DHT22;3699;51.462;6.696;2023-05-29T14:09:38;22.80;32.00
7317;DHT22;3699;51.462;6.696;2023-05-29T14:12:05;22.60;31.90
7317;DHT22;3699;51.462;6.696;2023-05-29T14:14:33;22.60;32.50
7317;DHT22;3699;51.462;6.696;2023-05-29T14:17:02;22.50;32.20
7317;DHT22;3699;51.462;6.696;2023-05-29T14:19:30;22.50;32.40
7317;DHT22;3699;51.462;6.696;2023-05-29T14:21:57;22.40;30.90
7317;DHT22;3699;51.462;6.696;2023-05-29T14:24:25;22.40;31.70
7317;DHT22;3699;51.462;6.696;2023-05-29T14:26:51;22.30;31.40
7317;DHT22;3699;51.462;6.696;2023-05-29T14:29:18;22.20;32.30
7317;DHT22;3699;51.462;6.696;2023-05-29T14:31:45;22.00;31.30
7317;DHT22;3699;51.462;6.696;2023-05-29T14:34:13;22.00;32.60
7317;DHT22;3699;51.462;6.696;2023-05-29T14:36:40;21.90;32.00
7317;DHT22;3699;51.462;6.696;2023-05-29T14:39:09;22.00;32.00
7317;DHT22;3699;51.462;6.696;2023-05-29T14:41:37;22.00;31.50
7317;DHT22;3699;51.462;6.696;2023-05-29T14:44:04;22.00;31.10
7317;DHT22;3699;51.462;6.696;2023-05-29T14:46:30;22.00;31.80
7317;DHT22;3699;51.462;6.696;2023-05-29T14:48:58;22.00;31.10
7317;DHT22;3699;51.462;6.696;2023-05-29T14:51:26;22.00;30.70
7317;DHT22;3699;51.462;6.696;2023-05-29T14:53:53;22.00;29.50
7317;DHT22;3699;51.462;6.696;2023-05-29T14:56:20;21.90;29.60
7317;DHT22;3699;51.462;6.696;2023-05-29T14:58:47;21.90;30.50
7317;DHT22;3699;51.462;6.696;2023-05-29T15:01:14;21.90;30.00
7317;DHT22;3699;51.462;6.696;2023-05-29T15:03:41;21.70;28.60
7317;DHT22;3699;51.462;6.696;2023-05-29T15:06:09;21.50;28.60
7317;DHT22;3699;51.462;6.696;2023-05-29T15:08:38;22.50;30.00
7317;DHT22;3699;51.462;6.696;2023-05-29T15:11:07;21.40;29.60
7317;DHT22;3699;51.462;6.696;2023-05-29T15:13:34;21.40;29.50
7317;DHT22;3699;51.462;6.696;2023-05-29T15:16:01;21.40;26.70
7317;DHT22;3699;51.462;6.696;2023-05-29T15:18:28;21.30;25.80
7317;DHT22;3699;51.462;6.696;2023-05-29T15:20:55;20.20;24.10
7317;DHT22;3699;51.462;6.696;2023-05-29T15:23:24;21.20;26.60
7317;DHT22;3699;51.462;6.696;2023-05-29T15:25:52;21.30;28.20
7317;DHT22;3699;51.462;6.696;2023-05-29T15:28:19;21.30;26.70
7317;DHT22;3699;51.462;6.696;2023-05-29T15:30:46;21.20;26.40
7317;DHT22;3699;51.462;6.696;2023-05-29T15:33:13;21.20;26.60
7317;DHT22;3699;51.462;6.696;2023-05-29T15:35:40;21.30;24.10
7317;DHT22;3699;51.462;6.696;2023-05-29T15:38:08;21.30;25.00
7317;DHT22;3699;51.462;6.696;2023-05-29T15:40:35;21.30;23.80
7317;DHT22;3699;51.462;6.696;2023-05-29T15:43:03;21.30;24.20
7317;DHT22;3699;51.462;6.696;2023-05-29T15:45:30;21.30;24.00
7317;DHT22;3699;51.462;6.696;2023-05-29T15:47:56;21.30;23.90
7317;DHT22;3699;51.462;6.696;2023-05-29T15:50:23;21.20;23.30
7317;DHT22;3699;51.462;6.696;2023-05-29T15:52:50;21.20;23.10
7317;DHT22;3699;51.462;6.696;2023-05-29T15:55:17;21.10;24.20
7317;DHT22;3699;51.462;6.696;2023-05-29T15:57:44;21.10;23.50
7317;DHT22;3699;51.462;6.696;2023-05-29T16:00:15;21.10;23.90
7317;DHT22;3699;51.462;6.696;2023-05-29T16:02:42;21.10;23.10
7317;DHT22;3699;51.462;6.696;2023-05-29T16:05:09;21.20;23.80
7317;DHT22;3699;51.462;6.696;2023-05-29T16:07:36;21.20;23.40
7317;DHT22;3699;51.462;6.696;2023-05-29T16:10:03;21.20;24.60
7317;DHT22;3699;51.462;6.696;2023-05-29T16:12:30;21.40;23.10
7317;DHT22;3699;51.462;6.696;2023-05-29T16:14:57;21.30;23.30
7317;DHT22;3699;51.462;6.696;2023-05-29T16:17:25;21.40;22.50
7317;DHT22;3699;51.462;6.696;2023-05-29T16:19:52;21.30;22.90